Time;durP1;ratioP1;P1;durP2;ratioP2;P2;SDS_P1;SDS_P2;PMS_P1;PMS_P2;Temp;Humidity;BMP_temperature;BMP_pressure;BME280_temperature;BME280_humidity;BME280_pressure;Samples;Min_cycle;Max_cycle;Signal;HPM_P1;HPM_P2
2022/12/24 00:01:22;;;;;;;2.00;1.00;;;;;;;14.81;100.00;98865.00;5092608;28;20020;-45
2022/12/24 00:03:48;;;;;;;1.10;0.75;;;;;;;14.81;100.00;98862.34;5091548;28;20542;-45
2022/12/24 00:06:20;;;;;;;4.70;1.20;;;;;;;14.84;100.00;98872.50;5092446;28;20020;-45
2022/12/24 00:08:45;;;;;;;4.25;0.80;;;;;;;14.77;100.00;98859.38;5092435;28;20498;-46
2022/12/24 00:11:11;;;;;;;2.35;0.98;;;;;;;14.57;100.00;98867.53;5092395;28;20035;-45
2022/12/24 00:13:36;;;;;;;1.77;0.60;;;;;;;14.37;100.00;98870.38;5092244;28;20478;-46
2022/12/24 00:16:02;;;;;;;1.10;0.77;;;;;;;14.11;100.00;98856.44;5093608;28;20021;-46
2022/12/24 00:18:28;;;;;;;3.10;0.93;;;;;;;13.96;100.00;98848.06;5093532;28;20020;-46
2022/12/24 00:20:53;;;;;;;1.60;1.17;;;;;;;13.90;100.00;98836.53;5092203;28;20024;-46
2022/12/24 00:23:20;;;;;;;1.80;1.10;;;;;;;13.86;100.00;98829.28;5093434;28;20035;-46
2022/12/24 00:25:45;;;;;;;2.42;0.90;;;;;;;13.85;100.00;98822.41;5093171;28;20044;-45
2022/12/24 00:28:12;;;;;;;4.32;1.10;;;;;;;13.85;100.00;98819.78;5093652;28;20031;-46
2022/12/24 00:30:39;;;;;;;5.28;0.90;;;;;;;13.86;100.00;98824.00;5093326;28;20024;-45
2022/12/24 00:33:05;;;;;;;6.43;4.93;;;;;;;13.88;100.00;98819.31;5091945;28;20556;-45
2022/12/24 00:35:35;;;;;;;6.60;2.30;;;;;;;13.87;100.00;98815.09;5091919;28;20052;-45
2022/12/24 00:38:02;;;;;;;3.63;1.08;;;;;;;14.18;100.00;98819.41;5093224;28;20024;-45
2022/12/24 00:40:28;;;;;;;2.85;1.20;;;;;;;14.22;100.00;98823.22;5093375;28;20035;-45
2022/12/24 00:42:54;;;;;;;2.60;1.00;;;;;;;14.08;100.00;98827.03;5091807;28;20028;-45
2022/12/24 00:45:19;;;;;;;0.88;0.88;;;;;;;13.94;100.00;98843.03;5093013;28;20069;-45
2022/12/24 00:47:45;;;;;;;2.15;0.85;;;;;;;14.03;100.00;98854.09;5091702;28;20526;-45
2022/12/24 00:50:11;;;;;;;2.90;0.60;;;;;;;14.26;100.00;98856.06;5091580;28;20082;-45
2022/12/24 00:52:36;;;;;;;3.10;0.38;;;;;;;14.43;100.00;98853.66;5091647;28;20398;-45
2022/12/24 00:55:02;;;;;;;0.43;0.30;;;;;;;14.56;100.00;98850.88;5091473;28;20085;-45
2022/12/24 00:57:28;;;;;;;1.55;0.85;;;;;;;14.60;100.00;98840.69;5091443;28;20024;-45
2022/12/24 00:59:53;;;;;;;0.75;0.40;;;;;;;14.62;100.00;98837.81;5091472;28;20504;-45
2022/12/24 01:02:19;;;;;;;4.00;0.52;;;;;;;14.75;100.00;98856.16;5091354;28;20059;-45
2022/12/24 01:07:29;;;;;;;85.82;77.38;;;;;;;15.14;100.00;98853.97;5091846;28;20035;-45
2022/12/24 01:09:54;;;;;;;17.67;13.55;;;;;;;15.46;100.00;98862.44;5091248;28;20028;-45
2022/12/24 01:12:20;;;;;;;23.95;20.75;;;;;;;15.44;100.00;98861.06;5092507;28;20108;-45
2022/12/24 01:14:46;;;;;;;1.85;1.30;;;;;;;15.06;100.00;98860.41;5090962;28;20028;-45
2022/12/24 01:17:11;;;;;;;8.05;1.98;;;;;;;14.64;99.77;98872.75;5091255;28;20028;-45
2022/12/24 01:19:37;;;;;;;3.25;1.40;;;;;;;14.36;100.00;98871.41;5093021;28;20101;-45
2022/12/24 01:22:02;;;;;;;4.88;1.38;;;;;;;14.37;100.00;98868.53;5091091;28;20020;-45
2022/12/24 01:24:28;;;;;;;1.67;1.20;;;;;;;14.16;100.00;98867.13;5091026;28;20522;-45
2022/12/24 01:26:54;;;;;;;88.03;5.95;;;;;;;13.95;100.00;98864.94;5091026;28;20032;-45
2022/12/24 01:29:19;;;;;;;8.88;1.90;;;;;;;13.92;100.00;98876.72;5090967;28;20024;-45
2022/12/24 01:31:45;;;;;;;4.38;1.60;;;;;;;14.12;100.00;98883.63;5090932;28;20029;-45
2022/12/24 01:34:10;;;;;;;4.63;1.90;;;;;;;14.13;100.00;98874.69;5091083;28;20027;-45
2022/12/24 01:36:36;;;;;;;4.55;1.70;;;;;;;14.07;100.00;98881.66;5090843;28;20032;-45
2022/12/24 01:39:02;;;;;;;2.13;1.48;;;;;;;13.86;100.00;98880.22;5091115;28;20020;-45
2022/12/24 01:44:35;;;;;;;3.85;1.02;;;;;;;13.68;100.00;98896.81;5092421;28;20081;-45
2022/12/24 01:47:15;;;;;;;4.28;1.77;;;;;;;13.62;100.00;98897.66;5092123;28;20059;-46
2022/12/24 01:50:00;;;;;;;5.75;1.80;;;;;;;13.72;100.00;98910.34;5092058;28;20020;-46
2022/12/24 01:52:33;;;;;;;3.58;1.27;;;;;;;13.82;100.00;98913.31;5091982;28;20052;-46
2022/12/24 01:55:06;;;;;;;4.22;1.20;;;;;;;13.85;100.00;98904.19;5091890;28;20502;-46
2022/12/24 01:57:47;;;;;;;3.72;1.30;;;;;;;13.76;100.00;98893.91;5091964;28;20028;-46
2022/12/24 02:00:15;;;;;;;3.38;1.48;;;;;;;13.75;100.00;98889.66;5090623;28;20565;-46
2022/12/24 02:02:45;;;;;;;2.38;1.10;;;;;;;13.71;100.00;98882.38;5090531;28;20035;-46
2022/12/24 02:05:35;;;;;;;4.30;1.40;;;;;;;13.59;100.00;98884.91;5090487;28;20022;-46
2022/12/24 02:08:03;;;;;;;4.72;1.27;;;;;;;13.49;100.00;98887.22;5091899;28;20479;-46
2022/12/24 02:10:28;;;;;;;3.25;1.40;;;;;;;13.43;100.00;98891.50;5090566;28;20432;-46
2022/12/24 02:12:56;;;;;;;2.67;1.55;;;;;;;13.57;100.00;98890.38;5091744;28;20089;-46
2022/12/24 02:15:21;;;;;;;3.30;1.10;;;;;;;13.74;100.00;98874.03;5090499;28;20080;-46
2022/12/24 02:17:58;;;;;;;3.22;1.05;;;;;;;13.78;100.00;98872.56;5090409;28;20031;-46
2022/12/24 02:20:42;;;;;;;2.25;1.50;;;;;;;13.82;100.00;98860.56;5090396;28;20498;-46
2022/12/24 02:23:55;;;;;;;2.13;1.15;;;;;;;13.87;100.00;98863.38;5090397;28;20118;-46
2022/12/24 02:27:19;;;;;;;1.85;1.00;;;;;;;13.84;100.00;98863.78;5030865;28;20045;-46
2022/12/24 02:30:09;;;;;;;3.90;1.17;;;;;;;13.85;100.00;98865.41;4973096;28;20499;-46
2022/12/24 02:32:34;;;;;;;1.90;0.70;;;;;;;13.86;100.00;98869.66;4993769;28;20112;-46
2022/12/24 02:35:10;;;;;;;2.17;1.23;;;;;;;13.75;100.00;98873.81;4993588;28;20505;-46
2022/12/24 02:37:44;;;;;;;3.45;1.00;;;;;;;13.76;100.00;98872.81;4977406;28;20085;-46
2022/12/24 02:40:20;;;;;;;4.63;1.10;;;;;;;13.73;100.00;98865.31;4993691;28;20124;-46
2022/12/24 02:42:52;;;;;;;3.88;1.38;;;;;;;13.65;99.71;98860.31;4993702;28;20066;-46
2022/12/24 02:45:27;;;;;;;2.08;1.67;;;;;;;13.56;100.00;98857.16;4993558;28;20101;-46
2022/12/24 02:47:55;;;;;;;6.63;1.52;;;;;;;13.56;100.00;98851.03;4993612;28;20035;-46
2022/12/24 02:50:21;;;;;;;3.03;1.20;;;;;;;13.49;98.69;98855.59;4977070;28;20115;-46
2022/12/24 02:52:47;;;;;;;3.42;1.40;;;;;;;13.46;98.64;98872.66;4977057;28;20598;-46
2022/12/24 02:55:16;;;;;;;2.72;1.00;;;;;;;13.57;100.00;98871.13;4976909;28;20544;-46
2022/12/24 02:58:32;;;;;;;2.80;1.20;;;;;;;13.68;100.00;98857.25;4977052;28;20038;-46
2022/12/24 03:01:17;;;;;;;3.13;1.02;;;;;;;13.78;100.00;98873.41;4983929;28;20042;-46
2022/12/24 03:03:58;;;;;;;8.65;1.55;;;;;;;13.76;100.00;98882.53;5063270;28;20036;-46
2022/12/24 03:06:43;;;;;;;5.47;1.98;;;;;;;14.14;100.00;98871.81;5094982;28;20081;-46
2022/12/24 03:09:25;;;;;;;6.53;3.88;;;;;;;14.48;100.00;98861.72;5094950;28;20036;-46
2022/12/24 03:12:00;;;;;;;13.60;3.65;;;;;;;14.80;100.00;98863.41;5094893;28;20036;-46
2022/12/24 03:14:28;;;;;;;22.30;2.30;;;;;;;14.36;100.00;98866.13;5076573;28;20028;-47
2022/12/24 03:16:55;;;;;;;1.60;1.05;;;;;;;13.82;100.00;98860.56;5094860;28;20020;-46
2022/12/24 03:19:23;;;;;;;5.47;1.55;;;;;;;13.45;100.00;98865.75;5095073;28;20390;-47
2022/12/24 03:21:50;;;;;;;6.45;4.32;;;;;;;13.44;100.00;98863.31;5094677;28;20421;-46
2022/12/24 03:24:15;;;;;;;12.95;10.60;;;;;;;13.37;100.00;98869.44;5094289;28;20060;-46
2022/12/24 03:26:44;;;;;;;3.60;2.47;;;;;;;13.19;100.00;98878.03;5093358;28;20169;-46
2022/12/24 03:29:09;;;;;;;8.25;3.25;;;;;;;13.06;100.00;98875.50;5093245;28;20541;-45
2022/12/24 03:31:44;;;;;;;61.60;54.85;;;;;;;12.96;100.00;98881.22;5093123;28;20111;-45
2022/12/24 03:34:11;;;;;;;23.83;19.53;;;;;;;13.03;100.00;98883.81;5094506;28;20032;-44
2022/12/24 03:36:36;;;;;;;6.30;2.05;;;;;;;13.23;100.00;98888.19;5092722;28;20073;-44
2022/12/24 03:39:03;;;;;;;3.72;1.83;;;;;;;13.39;100.00;98890.31;5091987;28;20025;-44
2022/12/24 03:41:29;;;;;;;8.38;4.10;;;;;;;13.70;100.00;98889.50;5092967;28;20043;-44
2022/12/24 03:43:55;;;;;;;21.33;17.75;;;;;;;14.18;100.00;98883.59;5092931;28;20494;-44
2022/12/24 03:46:20;;;;;;;6.57;2.28;;;;;;;14.46;100.00;98876.97;5092881;28;20030;-44
2022/12/24 03:48:46;;;;;;;7.78;4.63;;;;;;;14.19;100.00;98877.25;5092876;28;20394;-44
2022/12/24 03:51:21;;;;;;;2.90;1.50;;;;;;;13.86;100.00;98890.75;5093094;28;20436;-44
2022/12/24 03:53:47;;;;;;;5.47;3.70;;;;;;;13.61;100.00;98889.97;5092737;28;20375;-44
2022/12/24 03:56:13;;;;;;;7.57;2.08;;;;;;;13.39;100.00;98871.88;5093986;28;20081;-43
2022/12/24 03:58:39;;;;;;;8.55;4.22;;;;;;;13.22;100.00;98876.00;5092632;28;20016;-44
2022/12/24 04:01:04;;;;;;;16.63;11.13;;;;;;;13.05;100.00;98867.81;5093908;28;20027;-44
2022/12/24 04:03:30;;;;;;;15.82;10.80;;;;;;;13.19;100.00;98864.06;5093930;28;20065;-44
2022/12/24 04:06:10;;;;;;;5.75;2.72;;;;;;;13.24;100.00;98866.06;5093731;28;20020;-44
2022/12/24 04:08:36;;;;;;;17.48;9.70;;;;;;;13.24;100.00;98869.53;5092527;28;20406;-44
2022/12/24 04:11:10;;;;;;;88.32;67.35;;;;;;;13.52;100.00;98876.22;5092372;28;20028;-44
2022/12/24 04:13:35;;;;;;;10.63;5.78;;;;;;;13.49;100.00;98864.28;5092274;28;20099;-44
2022/12/24 04:16:07;;;;;;;9.48;6.70;;;;;;;13.21;100.00;98861.22;5092277;28;20489;-44
2022/12/24 04:18:33;;;;;;;9.98;6.40;;;;;;;13.14;100.00;98862.06;5092287;28;20494;-44
2022/12/24 04:20:59;;;;;;;79.80;61.90;;;;;;;12.95;100.00;98871.69;5093460;28;20024;-44
2022/12/24 04:23:30;;;;;;;20.25;13.13;;;;;;;12.83;100.00;98867.31;5093511;28;20035;-44
2022/12/24 04:26:01;;;;;;;5.93;2.92;;;;;;;12.70;100.00;98871.63;5093149;28;20071;-44
2022/12/24 04:28:29;;;;;;;16.95;11.82;;;;;;;12.64;100.00;98869.03;5093416;28;20056;-44
2022/12/24 04:31:02;;;;;;;5.25;3.63;;;;;;;12.58;100.00;98860.94;5093279;28;20525;-47
2022/12/24 04:33:28;;;;;;;58.92;40.00;;;;;;;12.55;100.00;98860.53;5091919;28;20061;-47
2022/12/24 04:35:56;;;;;;;28.50;17.73;;;;;;;12.73;100.00;98870.41;5093186;28;20020;-47
2022/12/24 04:38:21;;;;;;;11.27;7.00;;;;;;;13.12;100.00;98881.72;5091904;28;20466;-47
2022/12/24 04:40:47;;;;;;;9.02;5.35;;;;;;;13.45;100.00;98878.94;5091843;28;20110;-47
2022/12/24 04:43:13;;;;;;;14.32;9.80;;;;;;;13.62;100.00;98860.72;5091856;28;20382;-47
2022/12/24 04:45:39;;;;;;;12.70;7.60;;;;;;;13.86;100.00;98864.38;5091769;28;20036;-44
2022/12/24 04:48:04;;;;;;;43.00;31.10;;;;;;;13.89;100.00;98868.44;5092808;28;20032;-44
2022/12/24 04:50:30;;;;;;;12.40;7.00;;;;;;;13.68;100.00;98869.63;5091344;28;20031;-44
2022/12/24 04:52:55;;;;;;;16.05;10.48;;;;;;;13.33;100.00;98872.72;5092847;28;20386;-44
2022/12/24 04:55:21;;;;;;;6.90;3.08;;;;;;;13.06;100.00;98867.59;5092849;28;20490;-44
2022/12/24 04:57:46;;;;;;;17.95;7.97;;;;;;;13.05;100.00;98878.34;5091530;28;20410;-44
2022/12/24 05:00:12;;;;;;;6.40;1.73;;;;;;;13.15;100.00;98874.22;5091504;28;20501;-44
2022/12/24 05:02:38;;;;;;;20.10;14.88;;;;;;;13.11;100.00;98886.19;5092761;28;20101;-44
2022/12/24 05:05:04;;;;;;;14.23;9.18;;;;;;;13.02;100.00;98882.22;5091330;28;20142;-44
2022/12/24 05:07:29;;;;;;;42.30;22.90;;;;;;;12.93;100.00;98884.28;5091390;28;20031;-44
2022/12/24 05:09:55;;;;;;;65.90;46.65;;;;;;;13.22;100.00;98889.19;5092588;28;20028;-44
2022/12/24 05:12:22;;;;;;;16.45;11.73;;;;;;;13.54;100.00;98880.28;5091213;28;20020;-44
2022/12/24 05:14:47;;;;;;;45.03;30.58;;;;;;;13.66;100.00;98888.31;5091164;28;20389;-44
2022/12/24 05:17:13;;;;;;;11.70;6.07;;;;;;;13.65;100.00;98894.59;5092513;28;20026;-44
2022/12/24 05:19:39;;;;;;;19.55;12.13;;;;;;;13.58;100.00;98896.47;5074273;28;20035;-44
2022/12/24 05:27:33;;;;;;;17.00;10.18;;;;;;;12.86;100.00;98899.31;5092470;28;20649;-44
2022/12/24 05:29:59;;;;;;;18.38;12.98;;;;;;;12.79;100.00;98895.88;5092307;28;20107;-44
2022/12/24 05:32:24;;;;;;;12.20;6.00;;;;;;;12.79;100.00;98877.44;5090966;28;20525;-44
2022/12/24 05:34:50;;;;;;;13.85;11.00;;;;;;;12.66;100.00;98861.72;5092135;28;20020;-44
2022/12/24 05:37:15;;;;;;;6.90;4.22;;;;;;;12.55;100.00;98865.81;5092140;28;20120;-44
2022/12/24 05:39:41;;;;;;;12.68;6.50;;;;;;;12.52;100.00;98859.13;5090886;28;20618;-44
2022/12/24 05:42:06;;;;;;;4.68;1.65;;;;;;;12.67;100.00;98858.06;5090778;28;20052;-44
2022/12/24 05:44:32;;;;;;;6.97;3.50;;;;;;;12.59;100.00;98856.47;5090776;28;20498;-44
2022/12/24 05:46:58;;;;;;;4.28;1.83;;;;;;;12.49;100.00;98869.28;5091992;28;20099;-44
2022/12/24 05:49:23;;;;;;;3.55;1.63;;;;;;;12.52;100.00;98871.50;5092025;28;20024;-45
2022/12/24 05:51:49;;;;;;;6.55;3.47;;;;;;;12.61;100.00;98867.59;5090691;28;20065;-45
2022/12/24 05:54:14;;;;;;;14.50;12.35;;;;;;;12.74;100.00;98861.50;5091925;28;20528;-45
2022/12/24 05:56:40;;;;;;;6.97;3.60;;;;;;;12.77;100.00;98855.78;5091890;28;20379;-45
2022/12/24 05:59:05;;;;;;;5.70;1.83;;;;;;;12.85;100.00;98839.75;5090898;28;20035;-45
2022/12/24 06:01:31;;;;;;;7.65;1.80;;;;;;;12.78;100.00;98838.97;5091056;28;20043;-45
2022/12/24 06:03:57;;;;;;;3.00;1.60;;;;;;;12.80;100.00;98847.47;5090586;28;20036;-45
2022/12/24 06:06:24;;;;;;;15.55;12.25;;;;;;;12.85;100.00;98847.63;5090525;28;20062;-46
2022/12/24 06:08:52;;;;;;;19.08;17.10;;;;;;;12.86;100.00;98857.16;5091784;28;20089;-46
2022/12/24 06:11:20;;;;;;;45.20;40.47;;;;;;;12.77;100.00;98850.53;5091788;28;20040;-46
2022/12/24 06:13:46;;;;;;;9.65;7.93;;;;;;;12.74;100.00;98850.97;5090630;28;20093;-46
2022/12/24 06:16:14;;;;;;;106.55;96.10;;;;;;;12.81;100.00;98859.63;5091766;28;20021;-46
2022/12/24 06:18:40;;;;;;;35.05;31.33;;;;;;;12.99;100.00;98856.28;5090415;28;20031;-46
2022/12/24 06:21:06;;;;;;;16.60;8.30;;;;;;;13.30;100.00;98852.88;5091637;28;20019;-46
2022/12/24 06:23:34;;;;;;;25.83;20.98;;;;;;;13.64;100.00;98849.97;5091681;28;20020;-46
2022/12/24 06:26:02;;;;;;;7.93;6.40;;;;;;;14.01;100.00;98848.22;5090114;28;20043;-46
2022/12/24 06:28:29;;;;;;;7.90;4.32;;;;;;;14.28;100.00;98838.16;5091581;28;20025;-46
2022/12/24 06:30:55;;;;;;;3.13;1.55;;;;;;;14.34;100.00;98841.78;5091576;28;20039;-46
2022/12/24 06:33:21;;;;;;;227.95;12.90;;;;;;;13.98;100.00;98833.63;5090182;28;20020;-46
2022/12/24 06:35:47;;;;;;;21.13;3.22;;;;;;;13.91;100.00;98817.06;5091544;28;20107;-46
2022/12/24 06:38:14;;;;;;;8.82;3.22;;;;;;;13.99;100.00;98813.34;5091535;28;20091;-46
2022/12/24 06:40:40;;;;;;;5.10;2.08;;;;;;;14.07;100.00;98823.59;5090168;28;20031;-46
2022/12/24 06:43:06;;;;;;;6.13;3.42;;;;;;;14.06;100.00;98829.09;5090296;28;20017;-46
2022/12/24 06:45:32;;;;;;;5.97;3.28;;;;;;;14.04;100.00;98824.03;5091487;28;20036;-46
2022/12/24 06:47:58;;;;;;;5.60;4.00;;;;;;;13.95;100.00;98830.63;5090132;28;20125;-46
2022/12/24 06:50:23;;;;;;;8.68;7.72;;;;;;;13.85;100.00;98838.25;5090126;28;20016;-46
2022/12/24 06:52:49;;;;;;;6.25;5.28;;;;;;;13.81;100.00;98837.06;5091434;28;20584;-46
2022/12/24 06:55:15;;;;;;;8.38;4.75;;;;;;;13.70;100.00;98838.56;5089978;28;20093;-46
2022/12/24 06:57:40;;;;;;;6.93;3.92;;;;;;;13.57;100.00;98847.41;5091411;28;20047;-46
2022/12/24 07:00:08;;;;;;;5.38;4.72;;;;;;;13.49;100.00;98853.75;5091311;28;20024;-46
2022/12/24 07:02:33;;;;;;;4.35;3.95;;;;;;;13.43;100.00;98851.16;5091252;28;20390;-46
2022/12/24 07:04:59;;;;;;;4.53;3.92;;;;;;;13.37;100.00;98848.34;5089977;28;20047;-46
2022/12/24 07:07:25;;;;;;;4.90;3.95;;;;;;;13.34;100.00;98842.69;5091255;28;20028;-46
2022/12/24 07:09:50;;;;;;;15.70;11.30;;;;;;;13.42;100.00;98836.34;5091263;28;20113;-46
2022/12/24 07:12:16;;;;;;;5.38;4.15;;;;;;;13.68;100.00;98841.44;5091294;28;20066;-46
2022/12/24 07:14:42;;;;;;;5.30;4.10;;;;;;;13.52;100.00;98850.69;5094754;28;20553;-46
2022/12/24 07:17:07;;;;;;;5.88;4.28;;;;;;;13.51;100.00;98843.78;5093554;28;20020;-46
2022/12/24 07:19:33;;;;;;;6.70;4.35;;;;;;;13.51;100.00;98835.09;5093476;28;20028;-46
2022/12/24 07:21:58;;;;;;;8.80;4.07;;;;;;;13.59;100.00;98826.91;5093362;28;20027;-46
2022/12/24 07:24:24;;;;;;;8.23;5.78;;;;;;;13.53;100.00;98817.22;5094396;28;20128;-47
2022/12/24 07:26:50;;;;;;;6.97;5.57;;;;;;;13.38;100.00;98823.63;5093246;28;20546;-46
2022/12/24 07:29:15;;;;;;;7.53;6.53;;;;;;;13.27;100.00;98818.19;5076391;28;20024;-46
2022/12/24 07:31:41;;;;;;;9.00;4.55;;;;;;;13.11;100.00;98830.06;5093163;28;20106;-46
2022/12/24 07:34:06;;;;;;;6.13;5.47;;;;;;;13.10;100.00;98836.34;5093222;28;20520;-46
2022/12/24 07:36:32;;;;;;;4.60;3.70;;;;;;;13.24;100.00;98826.53;5094403;28;20024;-46
2022/12/24 07:39:01;;;;;;;11.55;8.80;;;;;;;13.32;100.00;98829.75;5093068;28;20024;-46
2022/12/24 07:41:26;;;;;;;4.15;3.53;;;;;;;13.30;100.00;98836.25;5093005;28;20020;-46
2022/12/24 07:43:52;;;;;;;6.07;4.22;;;;;;;13.18;100.00;98833.47;5094287;28;20494;-46
2022/12/24 07:46:17;;;;;;;9.68;4.85;;;;;;;13.27;100.00;98836.66;5092918;28;20020;-46
2022/12/24 07:48:43;;;;;;;13.38;9.13;;;;;;;13.84;100.00;98834.78;5092880;28;20028;-46
2022/12/24 07:51:08;;;;;;;23.05;17.23;;;;;;;14.28;100.00;98832.09;5094360;28;20035;-46
2022/12/24 07:53:34;;;;;;;5.88;4.22;;;;;;;14.55;100.00;98824.69;5094086;28;20055;-46
2022/12/24 07:56:00;;;;;;;17.45;15.00;;;;;;;14.63;100.00;98813.84;5094051;28;20028;-46
2022/12/24 07:58:26;;;;;;;13.10;3.80;;;;;;;14.47;100.00;98831.06;5094018;28;20024;-46
2022/12/24 08:00:55;;;;;;;18.20;16.33;;;;;;;14.08;100.00;98845.50;5093899;28;20103;-46
2022/12/24 08:03:21;;;;;;;11.55;4.97;;;;;;;14.26;100.00;98844.72;5092632;28;20494;-46
2022/12/24 08:05:47;;;;;;;7.53;3.90;;;;;;;14.53;100.00;98843.38;5093802;28;20034;-46
2022/12/24 08:08:13;;;;;;;8.20;5.45;;;;;;;14.65;100.00;98837.34;5092498;28;20022;-46
2022/12/24 08:10:41;;;;;;;5.90;3.92;;;;;;;14.89;100.00;98841.72;5093764;28;20107;-46
2022/12/24 08:13:06;;;;;;;10.98;4.07;;;;;;;14.63;100.00;98849.97;5093660;28;20027;-46
2022/12/24 08:15:32;;;;;;;8.85;3.67;;;;;;;14.43;100.00;98852.84;5092271;28;20028;-46
2022/12/24 08:17:57;;;;;;;4.25;3.47;;;;;;;14.45;100.00;98861.38;5093633;28;20024;-46
2022/12/24 08:20:23;;;;;;;6.35;3.70;;;;;;;14.53;100.00;98866.34;5093554;28;20020;-46
2022/12/24 08:22:49;;;;;;;33.67;30.10;;;;;;;14.71;100.00;98860.28;5092040;28;20091;-46
2022/12/24 08:25:15;;;;;;;14.18;11.13;;;;;;;14.95;100.00;98853.22;5091198;28;20425;-46
2022/12/24 08:27:40;;;;;;;15.30;7.47;;;;;;;15.32;100.00;98847.81;5092066;28;20030;-46
2022/12/24 08:30:06;;;;;;;10.10;5.10;;;;;;;15.65;100.00;98836.69;5092006;28;20443;-46
2022/12/24 08:32:32;;;;;;;10.48;4.82;;;;;;;16.03;100.00;98838.09;5091991;28;20139;-45
2022/12/24 08:34:58;;;;;;;10.80;7.38;;;;;;;16.18;100.00;98846.38;5093173;28;20508;-45
2022/12/24 08:37:23;;;;;;;8.60;4.45;;;;;;;16.23;100.00;98847.53;5091892;28;20406;-45
2022/12/24 08:39:49;;;;;;;7.20;3.50;;;;;;;16.34;100.00;98858.09;5091919;28;20088;-46
2022/12/24 08:42:14;;;;;;;13.90;3.78;;;;;;;16.50;100.00;98858.38;5091814;28;20506;-46
2022/12/24 08:44:40;;;;;;;5.85;3.72;;;;;;;16.80;100.00;98847.56;5093124;28;20038;-46
2022/12/24 08:47:06;;;;;;;8.25;4.70;;;;;;;17.19;100.00;98839.03;5091762;28;20051;-46
2022/12/24 08:49:31;;;;;;;6.25;3.63;;;;;;;17.52;98.49;98843.53;5091701;28;20016;-46
2022/12/24 08:51:57;;;;;;;5.45;4.57;;;;;;;17.65;97.05;98837.91;5092969;28;20024;-46
2022/12/24 08:54:24;;;;;;;6.20;4.68;;;;;;;17.30;95.67;98857.50;5091597;28;20393;-46
2022/12/24 08:56:50;;;;;;;4.45;3.67;;;;;;;16.75;94.68;98874.78;5092857;28;20031;-46
2022/12/24 08:59:16;;;;;;;5.85;4.15;;;;;;;16.28;94.71;98858.22;5092906;28;20023;-46
2022/12/24 09:01:41;;;;;;;12.23;3.72;;;;;;;16.12;96.47;98835.91;5092750;28;20516;-46
2022/12/24 09:04:08;;;;;;;15.43;4.00;;;;;;;16.30;98.55;98843.72;5092762;28;20055;-46
2022/12/24 09:06:34;;;;;;;91.90;82.90;;;;;;;16.47;98.57;98840.31;5092672;28;20107;-46
2022/12/24 09:09:00;;;;;;;14.23;12.82;;;;;;;16.58;98.26;98850.09;5092695;28;20080;-46
2022/12/24 09:11:26;;;;;;;11.60;4.63;;;;;;;16.55;97.50;98859.31;5092600;28;20013;-46
2022/12/24 09:13:52;;;;;;;9.98;4.80;;;;;;;16.54;98.03;98857.72;5092484;28;20157;-46
2022/12/24 09:16:18;;;;;;;23.80;21.45;;;;;;;16.54;96.68;98856.88;5091256;28;20020;-46
2022/12/24 09:18:44;;;;;;;110.50;100.30;;;;;;;16.58;98.00;98850.09;5091101;28;20024;-46
2022/12/24 09:21:13;;;;;;;11.10;9.35;;;;;;;16.75;97.89;98860.75;5091118;28;20116;-46
2022/12/24 09:23:40;;;;;;;6.50;3.88;;;;;;;16.82;98.06;98865.94;5092381;28;20533;-46
2022/12/24 09:26:13;;;;;;;6.90;4.38;;;;;;;17.01;98.68;98874.50;5090828;28;20509;-46
2022/12/24 09:28:39;;;;;;;41.55;38.00;;;;;;;17.14;97.24;98879.50;5092329;28;20016;-46
2022/12/24 09:31:05;;;;;;;7.82;6.10;;;;;;;17.13;96.57;98883.22;5092319;28;20069;-46
2022/12/24 09:33:34;;;;;;;8.65;5.65;;;;;;;17.05;96.06;98886.25;5092158;28;20028;-46
2022/12/24 09:36:00;;;;;;;9.10;7.18;;;;;;;17.03;96.34;98894.44;5092341;28;20473;-46
2022/12/24 09:38:25;;;;;;;15.13;13.73;;;;;;;17.11;97.48;98895.91;5074120;28;20032;-46
2022/12/24 09:40:53;;;;;;;6.25;4.28;;;;;;;17.16;95.91;98893.34;5092146;28;20032;-46
2022/12/24 09:43:21;;;;;;;9.38;6.57;;;;;;;17.17;96.92;98894.97;5092166;28;20031;-46
2022/12/24 09:46:12;;;;;;;25.42;22.90;;;;;;;17.25;96.35;98886.63;5090705;28;20028;-46
2022/12/24 09:48:45;;;;;;;11.57;10.52;;;;;;;17.33;94.63;98888.88;5092129;28;20528;-46
2022/12/24 09:51:20;;;;;;;7.47;6.65;;;;;;;17.26;94.98;98888.22;5092021;28;20093;-46
2022/12/24 09:54:22;;;;;;;14.18;10.55;;;;;;;17.41;95.88;98887.69;5092016;28;20031;-46
2022/12/24 09:56:48;;;;;;;341.55;311.48;;;;;;;17.49;96.81;98881.19;5090655;28;20032;-46
2022/12/24 09:59:19;;;;;;;58.95;53.47;;;;;;;17.52;96.40;98870.88;5090599;28;20061;-46
2022/12/24 10:01:45;;;;;;;60.75;55.08;;;;;;;17.54;96.83;98875.94;5090603;28;20032;-46
2022/12/24 10:04:21;;;;;;;95.75;85.85;;;;;;;17.58;96.61;98871.75;5090553;28;20047;-46
2022/12/24 10:07:18;;;;;;;24.35;12.88;;;;;;;17.75;97.29;98863.81;5091835;28;20095;-46
2022/12/24 10:10:14;;;;;;;15.77;13.55;;;;;;;18.12;95.94;98847.34;5088278;28;20105;-47
2022/12/24 10:13:12;;;;;;;14.43;12.30;;;;;;;18.47;94.91;98851.50;5062947;28;20044;-46
2022/12/24 10:15:59;;;;;;;39.30;35.72;;;;;;;18.47;93.50;98848.84;5091866;28;20027;-47
2022/12/24 10:18:44;;;;;;;6.63;5.65;;;;;;;18.67;94.00;98857.06;5091851;28;20406;-46
2022/12/24 10:21:23;;;;;;;3.42;3.00;;;;;;;18.60;91.60;98861.75;5091844;28;20486;-47
2022/12/24 10:24:02;;;;;;;8.90;7.55;;;;;;;18.49;92.70;98858.19;5090442;28;20398;-46
2022/12/24 10:26:44;;;;;;;9.90;4.80;;;;;;;18.67;92.91;98862.41;5071526;28;20568;-46
2022/12/24 10:29:19;;;;;;;15.07;10.93;;;;;;;18.77;92.43;98859.84;5070486;28;20036;-46
2022/12/24 10:32:06;;;;;;;5.35;3.08;;;;;;;18.71;91.85;98855.53;5071414;28;20033;-46
2022/12/24 10:34:42;;;;;;;8.57;3.92;;;;;;;18.68;93.89;98856.00;5071385;28;20085;-46
2022/12/24 10:37:21;;;;;;;8.35;4.47;;;;;;;18.85;93.40;98839.19;5070078;28;20123;-46
2022/12/24 10:39:46;;;;;;;10.02;4.85;;;;;;;18.78;94.19;98850.00;5071416;28;20059;-46
2022/12/24 10:42:14;;;;;;;13.70;8.02;;;;;;;18.87;93.00;98845.84;5070069;28;20103;-46
2022/12/24 10:44:40;;;;;;;13.57;5.55;;;;;;;19.06;93.24;98837.56;5071299;28;20380;-46
2022/12/24 10:47:08;;;;;;;10.65;4.13;;;;;;;19.26;93.51;98837.72;5071077;28;20032;-46
2022/12/24 10:50:00;;;;;;;8.52;4.18;;;;;;;19.31;90.41;98835.09;5073842;28;20032;-46
2022/12/24 10:52:31;;;;;;;5.07;3.00;;;;;;;18.99;91.17;98820.97;5075043;28;20036;-46
2022/12/24 10:55:18;;;;;;;5.00;4.32;;;;;;;18.78;90.70;98818.09;5074973;28;20021;-47
2022/12/24 10:58:04;;;;;;;13.60;12.43;;;;;;;18.72;91.09;98811.91;5075023;28;20082;-46
2022/12/24 11:00:31;;;;;;;7.45;3.47;;;;;;;18.68;92.37;98815.34;5073575;28;20029;-47
2022/12/24 11:03:05;;;;;;;9.38;6.55;;;;;;;18.64;91.58;98814.22;5074818;28;20028;-46
2022/12/24 11:05:36;;;;;;;25.88;23.33;;;;;;;18.78;93.18;98828.72;5074703;28;20032;-46
2022/12/24 11:08:05;;;;;;;5.50;3.25;;;;;;;19.01;93.64;98835.63;5073410;28;20514;-46
2022/12/24 11:10:35;;;;;;;7.25;6.18;;;;;;;19.10;93.59;98831.47;5073353;28;20025;-46
2022/12/24 11:13:01;;;;;;;15.95;12.13;;;;;;;19.04;93.03;98829.03;5073330;28;20029;-47
2022/12/24 11:15:35;;;;;;;7.03;5.55;;;;;;;19.08;90.75;98830.13;5074471;28;20025;-47
2022/12/24 11:18:05;;;;;;;8.10;3.92;;;;;;;19.15;91.64;98830.69;5073474;28;20483;-47
2022/12/24 11:20:33;;;;;;;12.65;8.60;;;;;;;19.29;90.69;98818.56;5074773;28;20028;-47
2022/12/24 11:23:01;;;;;;;4.65;3.08;;;;;;;19.51;90.16;98805.16;5073211;28;20027;-46
2022/12/24 11:25:32;;;;;;;4.32;1.80;;;;;;;19.86;87.67;98809.16;5086737;28;20044;-46
2022/12/24 11:28:23;;;;;;;4.40;3.90;;;;;;;20.17;86.77;98819.97;5094499;28;20055;-45
2022/12/24 11:31:01;;;;;;;5.80;4.88;;;;;;;20.57;85.59;98829.19;5094601;28;20062;-45
2022/12/24 11:33:29;;;;;;;4.38;3.20;;;;;;;20.71;84.13;98826.84;5093129;28;20020;-45
2022/12/24 11:36:05;;;;;;;13.05;11.63;;;;;;;20.62;81.07;98821.22;5094465;28;20073;-45
2022/12/24 11:38:33;;;;;;;7.30;2.10;;;;;;;20.39;81.01;98817.13;5094461;28;20039;-45
2022/12/24 11:41:06;;;;;;;5.10;2.58;;;;;;;20.33;79.98;98823.50;5094327;28;20360;-45
2022/12/24 11:43:57;;;;;;;2.95;1.90;;;;;;;20.14;79.40;98823.13;5094384;28;20024;-45